Time;durP1;ratioP1;P1;durP2;ratioP2;P2;SDS_P1;SDS_P2;PMS_P1;PMS_P2;Temp;Humidity;BMP_temperature;BMP_pressure;BME280_temperature;BME280_humidity;BME280_pressure;Samples;Min_cycle;Max_cycle;Signal;HPM_P1;HPM_P2
2022/12/07 00:02:10;;;;;;;2.88;2.20;;;6.40;88.50;;;;;;9177273;19;20011;-65
2022/12/07 00:05:13;;;;;;;4.63;2.20;;;6.40;88.50;;;;;;9176159;19;20042;-65
2022/12/07 00:08:17;;;;;;;6.47;2.05;;;6.40;88.50;;;;;;9177473;19;20610;-66
2022/12/07 00:11:25;;;;;;;5.03;2.10;;;6.30;88.40;;;;;;9177633;19;20035;-67
2022/12/07 00:14:29;;;;;;;11.27;2.53;;;6.30;88.40;;;;;;9176957;19;20007;-65
2022/12/07 00:17:33;;;;;;;4.32;1.73;;;6.30;88.50;;;;;;9172349;19;20047;-66
2022/12/07 00:20:37;;;;;;;4.63;1.70;;;6.20;88.40;;;;;;9176921;19;20026;-65
2022/12/07 00:23:42;;;;;;;8.82;1.92;;;6.20;88.40;;;;;;9176364;19;20022;-65
2022/12/07 00:26:47;;;;;;;2.42;1.50;;;6.20;88.50;;;;;;9173382;19;20048;-65
2022/12/07 00:29:51;;;;;;;5.00;1.83;;;6.10;88.40;;;;;;9177029;19;20051;-66
2022/12/07 00:32:55;;;;;;;6.30;2.00;;;6.10;88.40;;;;;;9176825;19;20411;-66
2022/12/07 00:35:59;;;;;;;5.68;1.60;;;6.10;88.50;;;;;;9173272;19;20038;-65
2022/12/07 00:39:03;;;;;;;5.55;2.00;;;6.00;88.40;;;;;;9176452;19;20018;-66
2022/12/07 00:42:09;;;;;;;5.65;1.60;;;6.00;88.40;;;;;;9180648;19;20047;-65
2022/12/07 00:45:13;;;;;;;11.93;2.25;;;6.00;88.40;;;;;;9178101;19;20034;-65
2022/12/07 00:48:16;;;;;;;6.10;1.50;;;6.00;88.50;;;;;;9185357;19;20018;-66
2022/12/07 00:51:22;;;;;;;2.70;1.35;;;5.90;88.40;;;;;;9182016;19;20021;-65
2022/12/07 00:54:26;;;;;;;3.58;1.60;;;5.90;88.40;;;;;;9184310;19;20034;-64
2022/12/07 00:57:32;;;;;;;4.07;1.33;;;5.90;88.40;;;;;;9179934;19;20060;-65
2022/12/07 01:00:38;;;;;;;5.85;1.42;;;5.80;88.40;;;;;;9184232;19;20026;-65
2022/12/07 01:03:42;;;;;;;4.05;1.80;;;5.80;88.40;;;;;;9182848;19;20014;-65
2022/12/07 01:06:46;;;;;;;6.20;1.45;;;5.70;88.30;;;;;;9183478;19;20015;-67
2022/12/07 01:09:50;;;;;;;7.13;1.50;;;5.70;88.40;;;;;;9182571;19;20015;-65
2022/12/07 01:12:55;;;;;;;4.03;1.23;;;5.70;88.40;;;;;;9183332;19;20015;-68
2022/12/07 01:16:01;;;;;;;5.32;1.45;;;5.60;88.40;;;;;;9182381;19;20036;-64
2022/12/07 01:19:06;;;;;;;2.88;1.50;;;5.60;88.50;;;;;;9181672;19;20037;-67
2022/12/07 01:22:09;;;;;;;8.95;1.60;;;5.60;88.40;;;;;;9181091;19;20018;-67
2022/12/07 01:25:13;;;;;;;;;;;5.60;88.40;;;;;;9181995;19;20010;-65
2022/12/07 01:28:19;;;;;;;3.88;1.20;;;5.50;88.40;;;;;;9184355;19;19926;-66
2022/12/07 01:31:24;;;;;;;5.18;1.35;;;5.50;88.40;;;;;;9183021;19;20015;-68
2022/12/07 01:34:28;;;;;;;7.85;1.65;;;5.50;88.40;;;;;;9183690;19;20014;-66
2022/12/07 01:37:36;;;;;;;6.25;1.42;;;5.40;88.40;;;;;;9177537;19;20006;-65
2022/12/07 01:40:40;;;;;;;7.50;1.73;;;5.40;88.40;;;;;;9182187;19;20380;-67
2022/12/07 01:44:13;;;;;;;8.07;1.83;;;5.40;88.40;;;;;;9178508;19;20475;-70
2022/12/07 01:47:19;;;;;;;5.50;1.63;;;5.40;88.40;;;;;;9183251;19;20022;-65
2022/12/07 01:50:26;;;;;;;4.18;1.55;;;5.40;88.40;;;;;;9182728;19;20031;-66
2022/12/07 01:53:32;;;;;;;2.75;1.17;;;5.30;88.40;;;;;;9177831;19;20022;-67
2022/12/07 01:56:36;;;;;;;3.47;1.60;;;5.30;88.40;;;;;;9179922;19;20021;-66
2022/12/07 01:59:40;;;;;;;4.75;2.05;;;5.30;88.40;;;;;;9181834;19;20014;-65
2022/12/07 02:02:50;;;;;;;9.02;1.48;;;5.30;88.50;;;;;;9182174;19;20022;-65
2022/12/07 02:05:56;;;;;;;7.70;1.20;;;5.30;88.50;;;;;;9182658;19;20334;-66
2022/12/07 02:08:59;;;;;;;7.68;1.55;;;5.20;88.40;;;;;;9181574;19;20014;-65
2022/12/07 02:12:04;;;;;;;11.38;1.13;;;5.20;88.50;;;;;;9179687;19;20026;-65
2022/12/07 02:15:09;;;;;;;3.80;1.23;;;5.20;88.50;;;;;;9181618;19;20365;-67
2022/12/07 02:18:22;;;;;;;9.48;1.13;;;5.20;88.50;;;;;;9177159;19;20018;-65
2022/12/07 02:21:36;;;;;;;11.85;1.67;;;5.20;88.50;;;;;;9181957;19;20014;-66
2022/12/07 02:24:54;;;;;;;5.20;1.58;;;5.10;88.50;;;;;;9181482;19;20108;-65
2022/12/07 02:28:05;;;;;;;8.65;1.60;;;5.10;88.50;;;;;;9179040;19;20428;-65
2022/12/07 02:31:18;;;;;;;3.45;1.48;;;5.10;88.50;;;;;;9181151;19;20015;-65
2022/12/07 02:34:42;;;;;;;12.77;1.73;;;5.10;88.50;;;;;;9180712;19;20022;-65
2022/12/07 02:38:00;;;;;;;13.48;1.80;;;5.10;88.50;;;;;;9177224;19;20010;-65
2022/12/07 02:41:09;;;;;;;9.20;1.67;;;5.10;88.50;;;;;;9180411;19;20486;-64
2022/12/07 02:44:16;;;;;;;14.48;1.85;;;5.00;88.40;;;;;;9176149;19;20011;-65
2022/12/07 02:47:25;;;;;;;11.63;2.58;;;5.00;88.50;;;;;;9177980;19;20018;-66
2022/12/07 02:50:29;;;;;;;5.07;1.70;;;5.00;88.50;;;;;;9178171;19;20046;-64
2022/12/07 02:53:36;;;;;;;10.20;2.58;;;5.00;88.50;;;;;;9177891;19;20356;-65
2022/12/07 02:56:47;;;;;;;4.47;1.38;;;5.00;88.60;;;;;;9177529;19;20505;-64
2022/12/07 03:00:02;;;;;;;5.65;1.05;;;5.00;88.60;;;;;;9178294;19;20018;-65
2022/12/07 03:03:13;;;;;;;5.97;1.50;;;5.00;88.60;;;;;;9179572;19;20027;-65
2022/12/07 03:06:23;;;;;;;1.58;0.98;;;5.00;88.60;;;;;;9179301;19;20011;-65
2022/12/07 03:09:33;;;;;;;9.90;1.55;;;5.00;88.60;;;;;;9180109;19;20022;-65
2022/12/07 03:12:44;;;;;;;6.07;1.40;;;5.00;88.60;;;;;;9178639;19;20058;-66
2022/12/07 03:15:55;;;;;;;10.48;1.30;;;5.00;88.60;;;;;;9174449;19;20020;-65
2022/12/07 03:19:07;;;;;;;21.27;3.05;;;5.00;88.60;;;;;;9178859;19;20018;-64
2022/12/07 03:22:13;;;;;;;4.65;1.20;;;5.00;88.70;;;;;;9178862;19;20018;-64
2022/12/07 03:25:19;;;;;;;10.68;1.63;;;5.10;88.70;;;;;;9178693;19;20018;-64
2022/12/07 03:28:26;;;;;;;7.30;1.27;;;5.00;88.70;;;;;;9177810;19;20011;-65
2022/12/07 03:31:33;;;;;;;6.07;1.20;;;5.10;88.80;;;;;;9179180;19;20010;-65
2022/12/07 03:34:46;;;;;;;12.02;1.52;;;5.00;88.70;;;;;;9177269;19;20059;-65
2022/12/07 03:37:54;;;;;;;10.73;1.27;;;5.10;88.70;;;;;;9175317;19;20006;-66
2022/12/07 03:41:02;;;;;;;10.57;1.40;;;5.10;88.70;;;;;;9178646;19;20066;-65
2022/12/07 03:44:07;;;;;;;7.82;1.55;;;5.00;88.60;;;;;;9172281;19;20018;-64
2022/12/07 03:47:17;;;;;;;8.00;1.48;;;5.10;88.60;;;;;;9176981;19;20014;-64
2022/12/07 03:50:30;;;;;;;3.42;0.95;;;5.10;88.60;;;;;;9178516;19;20014;-65
2022/12/07 03:53:37;;;;;;;7.75;1.10;;;5.00;88.50;;;;;;9174098;19;20015;-64
2022/12/07 03:56:42;;;;;;;7.72;1.42;;;5.00;88.50;;;;;;9175982;19;20368;-66
2022/12/07 03:59:48;;;;;;;8.50;1.35;;;5.00;88.60;;;;;;9176238;19;20021;-67
2022/12/07 04:02:54;;;;;;;7.88;1.17;;;5.00;88.60;;;;;;9177491;19;20018;-66
2022/12/07 04:06:00;;;;;;;4.68;1.05;;;5.00;88.60;;;;;;9176330;19;20086;-65
2022/12/07 04:09:05;;;;;;;16.40;1.58;;;5.00;88.60;;;;;;9177504;19;20024;-65
2022/12/07 04:12:08;;;;;;;9.48;2.03;;;5.00;88.60;;;;;;9173559;19;20014;-64
2022/12/07 04:15:12;;;;;;;3.88;1.15;;;5.00;88.60;;;;;;9177110;19;20385;-64
2022/12/07 04:18:16;;;;;;;4.88;0.98;;;5.00;88.60;;;;;;9182752;19;20031;-65
2022/12/07 04:21:22;;;;;;;10.00;1.77;;;5.00;88.60;;;;;;9184176;19;20021;-64
2022/12/07 04:24:26;;;;;;;7.03;1.38;;;5.00;89.20;;;;;;9184708;19;20032;-65
2022/12/07 04:27:30;;;;;;;5.25;1.23;;;5.00;88.60;;;;;;9183534;19;20022;-65
2022/12/07 04:30:33;;;;;;;;;;;5.10;88.70;;;;;;9186681;19;20015;-65
2022/12/07 04:33:38;;;;;;;8.57;1.00;;;5.00;88.60;;;;;;9183566;19;19989;-65
2022/12/07 04:36:44;;;;;;;10.85;1.48;;;5.00;88.60;;;;;;9183529;19;20018;-65
2022/12/07 04:39:48;;;;;;;7.70;1.35;;;5.00;88.50;;;;;;9184898;19;20010;-65
2022/12/07 04:42:51;;;;;;;8.23;1.10;;;5.00;88.60;;;;;;9179568;19;20042;-67
2022/12/07 04:45:55;;;;;;;;;;;5.00;88.60;;;;;;9185343;19;20018;-65
2022/12/07 04:48:59;;;;;;;5.75;1.20;;;5.00;88.60;;;;;;9183355;19;19923;-66
2022/12/07 04:52:05;;;;;;;9.43;1.35;;;5.10;88.50;;;;;;9182114;19;20011;-65
2022/12/07 04:55:09;;;;;;;9.55;1.70;;;5.10;88.60;;;;;;9182074;19;20047;-65
2022/12/07 04:58:13;;;;;;;8.30;1.30;;;5.10;88.60;;;;;;9182006;19;20018;-65
2022/12/07 05:01:19;;;;;;;7.78;1.20;;;5.00;88.50;;;;;;9182965;19;20504;-65
2022/12/07 05:04:22;;;;;;;7.18;1.40;;;5.00;88.50;;;;;;9181861;19;20014;-66
2022/12/07 05:07:28;;;;;;;4.75;0.82;;;5.00;88.40;;;;;;9181269;19;20098;-64
2022/12/07 05:10:32;;;;;;;8.15;1.25;;;5.00;88.40;;;;;;9183922;19;20015;-65
2022/12/07 05:13:36;;;;;;;4.95;1.40;;;5.00;88.50;;;;;;9183344;19;20026;-66
2022/12/07 05:16:41;;;;;;;5.70;0.90;;;5.00;88.50;;;;;;9181729;19;20022;-65
2022/12/07 05:19:45;;;;;;;6.47;1.35;;;4.90;88.40;;;;;;9181370;19;20052;-65
2022/12/07 05:22:51;;;;;;;4.88;1.05;;;4.90;88.40;;;;;;9181289;19;20050;-66
2022/12/07 05:25:54;;;;;;;12.00;1.30;;;4.90;88.50;;;;;;9182480;19;20092;-67
2022/12/07 05:28:58;;;;;;;;;;;4.90;88.50;;;;;;9183727;19;20018;-66
2022/12/07 05:32:02;;;;;;;7.15;0.80;;;4.90;88.50;;;;;;9183685;19;20325;-65
2022/12/07 05:35:06;;;;;;;;;;;4.90;88.40;;;;;;9183579;19;20967;-65
2022/12/07 05:38:12;;;;;;;8.90;1.10;;;4.90;88.40;;;;;;9178813;19;19935;-66
2022/12/07 05:44:35;;;;;;;9.75;2.80;;;4.80;89.00;;;;;;9178145;19;20042;-65
2022/12/07 05:47:39;;;;;;;13.20;2.97;;;4.80;88.40;;;;;;9182657;19;20499;-65
2022/12/07 05:50:43;;;;;;;9.88;2.15;;;4.80;88.50;;;;;;9182167;19;20122;-65
2022/12/07 05:53:50;;;;;;;18.15;3.78;;;4.80;88.40;;;;;;9179466;19;20006;-66
2022/12/07 05:56:54;;;;;;;16.48;3.45;;;4.80;88.40;;;;;;9181110;19;20479;-66
2022/12/07 05:59:58;;;;;;;7.97;2.13;;;4.70;88.50;;;;;;9180426;19;20022;-65
2022/12/07 06:03:02;;;;;;;7.43;1.48;;;4.70;88.40;;;;;;9180237;19;20378;-65
2022/12/07 06:06:06;;;;;;;12.05;3.70;;;4.70;88.40;;;;;;9180519;19;20013;-64
2022/12/07 06:09:13;;;;;;;9.88;2.05;;;4.70;88.40;;;;;;9182679;19;20467;-65
2022/12/07 06:15:34;;;;;;;7.82;1.55;;;4.70;88.50;;;;;;9180386;19;20503;-65
2022/12/07 06:18:38;;;;;;;;;;;4.70;88.50;;;;;;9180769;19;20332;-64
2022/12/07 06:21:42;;;;;;;11.23;2.27;;;4.60;88.40;;;;;;9180723;19;19927;-65
2022/12/07 06:24:48;;;;;;;4.22;1.33;;;4.70;88.40;;;;;;9181762;19;20029;-65
2022/12/07 06:27:52;;;;;;;3.30;1.13;;;4.60;88.40;;;;;;9181771;19;20551;-64
2022/12/07 06:30:59;;;;;;;6.78;1.38;;;4.60;88.50;;;;;;9181992;19;20043;-65
2022/12/07 06:34:05;;;;;;;4.85;1.00;;;4.60;88.50;;;;;;9179345;19;20033;-64
2022/12/07 06:37:08;;;;;;;6.97;1.23;;;4.60;88.50;;;;;;9178350;19;20011;-65
2022/12/07 06:40:15;;;;;;;11.15;1.90;;;4.50;88.40;;;;;;9177664;19;20015;-64
2022/12/07 06:43:18;;;;;;;11.25;1.55;;;4.50;88.40;;;;;;9176024;19;20017;-64
2022/12/07 06:46:22;;;;;;;7.65;1.25;;;4.50;88.50;;;;;;9178531;19;20025;-65
2022/12/07 06:49:26;;;;;;;;;;;4.50;88.50;;;;;;9181175;19;20015;-63
2022/12/07 06:52:29;;;;;;;10.55;1.55;;;4.50;88.40;;;;;;9179029;19;19918;-65
2022/12/07 06:55:35;;;;;;;6.75;2.35;;;4.50;88.40;;;;;;9178973;19;20030;-66
2022/12/07 06:58:39;;;;;;;9.07;2.40;;;4.50;88.50;;;;;;9176862;19;20022;-65
2022/12/07 07:01:42;;;;;;;6.97;1.40;;;4.40;88.40;;;;;;9178753;19;20014;-64
2022/12/07 07:04:46;;;;;;;12.80;1.67;;;4.40;88.50;;;;;;9176241;19;20021;-65
2022/12/07 07:07:50;;;;;;;10.55;1.58;;;4.40;88.50;;;;;;9179550;19;20019;-67
2022/12/07 07:11:16;;;;;;;6.97;1.40;;;4.40;88.50;;;;;;9177850;19;20023;-65
2022/12/07 07:14:21;;;;;;;7.68;1.50;;;4.40;88.50;;;;;;9167323;19;20022;-65
2022/12/07 07:17:24;;;;;;;8.93;2.13;;;4.40;88.50;;;;;;9171798;19;20352;-68
2022/12/07 07:20:28;;;;;;;12.40;2.97;;;4.40;88.60;;;;;;9166013;19;20028;-66
2022/12/07 07:23:32;;;;;;;8.50;2.47;;;4.40;88.50;;;;;;9165945;19;20098;-70
2022/12/07 07:26:38;;;;;;;10.35;2.53;;;4.40;88.50;;;;;;9160022;19;20019;-67
2022/12/07 07:29:42;;;;;;;4.47;2.28;;;4.40;89.10;;;;;;9165534;19;20022;-68
2022/12/07 07:32:46;;;;;;;;;;;4.40;88.50;;;;;;9162115;19;20018;-66
2022/12/07 07:35:49;;;;;;;15.83;3.23;;;4.40;88.50;;;;;;9161203;19;19998;-68
2022/12/07 07:38:53;;;;;;;;;;;4.40;88.50;;;;;;9170116;19;20026;-64
2022/12/07 07:41:59;;;;;;;5.07;1.63;;;4.40;88.50;;;;;;9167627;19;19923;-68
2022/12/07 07:45:04;;;;;;;8.25;1.90;;;4.40;88.50;;;;;;9158813;19;20092;-66
2022/12/07 07:48:08;;;;;;;10.73;2.92;;;4.40;88.60;;;;;;9160449;19;20014;-67
2022/12/07 07:51:12;;;;;;;;;;;4.40;88.50;;;;;;9164401;19;20007;-65
2022/12/07 07:54:16;;;;;;;8.70;2.13;;;4.40;88.50;;;;;;9173075;19;19922;-67
2022/12/07 07:57:22;;;;;;;9.68;1.88;;;4.40;88.50;;;;;;9179662;19;20127;-65
2022/12/07 08:00:26;;;;;;;14.23;2.03;;;4.40;88.60;;;;;;9184481;19;20018;-66
2022/12/07 08:03:30;;;;;;;9.15;1.33;;;4.40;88.50;;;;;;9178836;19;20984;-66
2022/12/07 08:06:33;;;;;;;8.65;1.77;;;4.40;88.50;;;;;;9177688;19;20046;-70
2022/12/07 08:09:37;;;;;;;14.52;1.90;;;4.50;88.60;;;;;;9180515;19;20015;-66
2022/12/07 08:16:06;;;;;;;7.20;1.55;;;4.50;88.60;;;;;;9172170;19;20441;-67
2022/12/07 08:19:10;;;;;;;12.35;1.85;;;4.50;88.60;;;;;;9178569;19;20022;-66
2022/12/07 08:22:13;;;;;;;9.82;1.90;;;4.50;88.60;;;;;;9175198;19;20018;-64
2022/12/07 08:25:18;;;;;;;8.52;1.65;;;4.50;88.60;;;;;;9180586;19;20010;-65
2022/12/07 08:28:23;;;;;;;8.90;1.60;;;4.50;88.60;;;;;;9180190;19;20018;-65
2022/12/07 08:31:28;;;;;;;8.05;1.77;;;4.50;88.60;;;;;;9180733;19;20050;-66
2022/12/07 08:34:32;;;;;;;9.15;1.80;;;4.60;88.70;;;;;;9178610;19;20057;-65
2022/12/07 08:37:36;;;;;;;12.05;2.22;;;4.60;88.70;;;;;;9174198;19;20018;-66
2022/12/07 08:40:40;;;;;;;9.88;2.08;;;4.50;88.60;;;;;;9179784;19;20034;-65
2022/12/07 08:43:45;;;;;;;8.23;1.95;;;4.60;88.70;;;;;;9169485;19;20022;-65
2022/12/07 08:46:53;;;;;;;8.88;1.98;;;4.60;88.70;;;;;;9183488;19;20018;-66
2022/12/07 08:50:03;;;;;;;13.68;1.98;;;4.60;88.80;;;;;;9179346;19;20015;-69
2022/12/07 08:53:08;;;;;;;9.43;1.60;;;4.70;88.80;;;;;;9175886;19;20006;-66
2022/12/07 08:56:12;;;;;;;6.60;2.17;;;4.70;88.80;;;;;;9175366;19;20015;-65
2022/12/07 08:59:19;;;;;;;;;;;4.70;88.70;;;;;;9180377;19;20015;-65
2022/12/07 09:02:23;;;;;;;7.75;2.38;;;4.70;88.80;;;;;;9175949;19;19945;-66
2022/12/07 09:05:26;;;;;;;;;;;4.80;88.80;;;;;;9179555;19;20026;-68
2022/12/07 09:08:36;;;;;;;8.90;1.30;;;4.80;88.80;;;;;;9179052;19;20376;-67
2022/12/07 09:11:40;;;;;;;8.90;1.30;;;4.80;88.80;;;;;;9176623;19;20015;-65
2022/12/07 09:14:46;;;;;;;13.23;1.55;;;4.90;88.90;;;;;;9177655;19;20023;-65
2022/12/07 09:17:54;;;;;;;11.82;1.90;;;4.90;88.80;;;;;;9176047;19;20027;-66
2022/12/07 09:20:58;;;;;;;8.52;2.30;;;4.90;88.80;;;;;;9172170;19;20025;-66
2022/12/07 09:24:02;;;;;;;10.85;1.67;;;5.00;88.90;;;;;;9176972;19;20010;-65
2022/12/07 09:27:05;;;;;;;10.98;1.25;;;5.00;88.90;;;;;;9178805;19;20388;-65
2022/12/07 09:30:12;;;;;;;6.32;1.42;;;5.00;88.90;;;;;;9174929;19;20026;-65
2022/12/07 09:33:16;;;;;;;12.45;2.10;;;5.10;88.90;;;;;;9173146;19;20022;-65
2022/12/07 09:36:19;;;;;;;;;;;5.10;88.90;;;;;;9178502;19;20015;-65
2022/12/07 09:39:23;;;;;;;12.30;2.70;;;5.10;88.90;;;;;;9171127;19;19935;-67
2022/12/07 09:42:31;;;;;;;9.38;1.63;;;5.10;88.80;;;;;;9174511;19;20528;-65
2022/12/07 09:45:38;;;;;;;7.45;1.42;;;5.10;88.80;;;;;;9166048;19;20023;-67
2022/12/07 09:48:44;;;;;;;5.10;1.30;;;5.20;88.90;;;;;;9176003;19;20010;-66
2022/12/07 09:51:49;;;;;;;9.80;1.98;;;5.20;88.90;;;;;;9172001;19;20672;-67
2022/12/07 09:54:54;;;;;;;5.60;1.33;;;5.30;89.00;;;;;;9173203;19;20523;-65
2022/12/07 09:57:59;;;;;;;14.50;3.15;;;5.20;89.00;;;;;;9175966;19;20490;-65
2022/12/07 10:01:14;;;;;;;10.65;2.13;;;5.30;89.70;;;;;;9182527;19;20037;-65
2022/12/07 10:04:21;;;;;;;8.77;2.30;;;5.30;89.00;;;;;;9182012;19;20014;-65
2022/12/07 10:07:25;;;;;;;12.02;2.20;;;5.40;89.10;;;;;;9180070;19;20014;-64
2022/12/07 10:10:31;;;;;;;;;;;5.40;89.20;;;;;;9175818;19;20538;-65
2022/12/07 10:13:45;;;;;;;9.07;1.10;;;5.50;89.30;;;;;;9167227;19;19918;-65
2022/12/07 10:16:50;;;;;;;4.88;1.20;;;5.60;89.20;;;;;;9177271;19;20018;-64
2022/12/07 10:20:09;;;;;;;5.82;1.60;;;5.60;89.20;;;;;;9173545;19;20023;-64
2022/12/07 10:23:17;;;;;;;7.03;2.17;;;5.70;89.20;;;;;;9177055;19;20041;-65
2022/12/07 10:26:52;;;;;;;13.20;2.15;;;5.80;89.20;;;;;;9175475;19;20029;-67
2022/12/07 10:29:57;;;;;;;11.32;1.77;;;5.80;89.20;;;;;;9172358;19;20042;-66
2022/12/07 10:33:03;;;;;;;13.32;2.40;;;5.90;89.20;;;;;;9174098;19;20056;-66
2022/12/07 10:36:28;;;;;;;7.85;1.35;;;5.90;89.20;;;;;;9174422;19;20014;-67
2022/12/07 10:39:43;;;;;;;12.35;1.52;;;6.00;89.20;;;;;;9172989;19;20015;-66
2022/12/07 10:43:03;;;;;;;10.90;2.10;;;6.00;89.20;;;;;;9176118;19;20018;-64
2022/12/07 10:46:41;;;;;;;6.70;1.45;;;6.10;89.20;;;;;;9169506;19;20022;-64
2022/12/07 10:50:19;;;;;;;12.25;1.60;;;6.10;89.20;;;;;;9172566;19;20021;-66
2022/12/07 10:53:36;;;;;;;5.63;1.65;;;6.20;89.20;;;;;;9168996;19;20497;-64
2022/12/07 10:56:57;;;;;;;8.05;1.33;;;6.20;89.20;;;;;;9173686;19;20018;-66
2022/12/07 11:00:09;;;;;;;19.17;2.90;;;6.30;89.30;;;;;;9174865;19;20023;-66
2022/12/07 11:03:45;;;;;;;8.80;1.33;;;6.40;89.30;;;;;;9176651;19;20022;-67
2022/12/07 11:06:56;;;;;;;9.98;1.75;;;6.40;89.30;;;;;;9173088;19;20022;-65
2022/12/07 11:10:18;;;;;;;9.63;1.60;;;6.50;89.20;;;;;;9175121;19;20010;-65
2022/12/07 11:13:29;;;;;;;9.02;1.40;;;6.50;89.10;;;;;;9173829;19;20033;-66
2022/12/07 11:16:59;;;;;;;9.65;1.40;;;6.60;89.20;;;;;;9173333;19;20098;-65
2022/12/07 11:20:15;;;;;;;14.75;4.20;;;6.70;89.10;;;;;;9166562;19;20491;-67
2022/12/07 11:23:31;;;;;;;5.30;1.17;;;6.70;89.00;;;;;;9169647;19;20018;-66
2022/12/07 11:26:47;;;;;;;14.68;1.65;;;6.70;88.90;;;;;;9174248;19;20011;-65
2022/12/07 11:30:10;;;;;;;3.85;0.85;;;6.80;88.90;;;;;;9167586;19;20019;-65
2022/12/07 11:33:21;;;;;;;5.43;1.15;;;6.80;88.80;;;;;;9172537;19;20022;-65
2022/12/07 11:36:38;;;;;;;3.90;1.30;;;6.80;88.80;;;;;;9170471;19;20445;-66
2022/12/07 11:39:49;;;;;;;11.52;1.70;;;6.90;88.80;;;;;;9171735;19;20018;-66
2022/12/07 11:42:57;;;;;;;11.98;1.98;;;6.90;88.70;;;;;;9159441;19;20022;-64
2022/12/07 11:46:05;;;;;;;10.93;1.70;;;6.90;88.70;;;;;;9171292;19;20015;-67
2022/12/07 11:49:15;;;;;;;7.50;1.90;;;6.90;88.60;;;;;;9168497;19;20378;-65
2022/12/07 11:52:27;;;;;;;10.35;1.70;;;7.00;88.60;;;;;;9168622;19;20338;-65
2022/12/07 11:55:44;;;;;;;7.30;1.17;;;7.00;88.60;;;;;;9170125;19;20057;-66
2022/12/07 11:58:52;;;;;;;5.72;1.25;;;7.00;88.50;;;;;;9170000;19;20018;-66
2022/12/07 12:02:00;;;;;;;9.05;1.50;;;7.00;88.50;;;;;;9171786;19;20018;-66
2022/12/07 12:05:14;;;;;;;9.80;1.52;;;7.00;88.50;;;;;;9172284;19;20018;-67
2022/12/07 12:08:24;;;;;;;12.27;1.60;;;7.00;88.60;;;;;;9171442;19;20641;-67
2022/12/07 12:12:14;;;;;;;5.20;1.38;;;7.00;88.60;;;;;;9172244;19;20022;-65
2022/12/07 12:15:51;;;;;;;9.73;2.20;;;7.10;88.60;;;;;;9175589;19;20011;-67
2022/12/07 12:19:20;;;;;;;11.68;1.73;;;7.10;88.60;;;;;;9171422;19;20026;-66
2022/12/07 12:22:30;;;;;;;10.18;1.42;;;7.20;88.50;;;;;;9175248;19;20478;-65
2022/12/07 12:25:40;;;;;;;12.13;1.85;;;7.20;88.50;;;;;;9168793;19;20030;-66
2022/12/07 12:28:55;;;;;;;9.45;1.23;;;7.20;88.50;;;;;;9172376;19;20090;-66
2022/12/07 12:32:14;;;;;;;6.53;1.40;;;7.30;88.40;;;;;;9167993;19;20360;-65
2022/12/07 12:35:32;;;;;;;7.18;1.50;;;7.30;88.30;;;;;;9170847;19;20373;-68
2022/12/07 12:38:49;;;;;;;3.75;1.10;;;7.30;88.30;;;;;;9169334;19;20898;-67
2022/12/07 12:42:08;;;;;;;5.63;1.23;;;7.30;88.30;;;;;;9175897;19;20014;-69
2022/12/07 12:45:25;;;;;;;4.57;1.10;;;7.30;88.20;;;;;;9171902;19;20026;-65
2022/12/07 12:48:31;;;;;;;6.68;1.27;;;7.30;88.10;;;;;;9179073;19;20027;-67
2022/12/07 12:51:40;;;;;;;13.68;2.85;;;7.40;88.20;;;;;;9173185;19;20018;-65
2022/12/07 12:55:01;;;;;;;7.20;1.40;;;7.30;88.00;;;;;;9173179;19;20025;-67
2022/12/07 12:58:31;;;;;;;6.43;1.33;;;7.30;87.90;;;;;;9170132;19;20019;-68
2022/12/07 13:01:45;;;;;;;6.18;1.30;;;7.40;87.90;;;;;;9171618;19;20470;-65
2022/12/07 13:04:55;;;;;;;8.07;1.27;;;7.40;87.90;;;;;;9171860;19;20356;-66
2022/12/07 13:08:03;;;;;;;6.50;1.90;;;7.40;87.90;;;;;;9179381;19;20018;-65
2022/12/07 13:11:22;;;;;;;9.32;1.52;;;7.40;87.90;;;;;;9177023;19;20025;-65
2022/12/07 13:14:42;;;;;;;8.63;2.20;;;7.30;87.80;;;;;;9175674;19;20021;-65
2022/12/07 13:18:24;;;;;;;7.13;1.30;;;7.30;87.70;;;;;;9176204;19;20019;-66
2022/12/07 13:21:44;;;;;;;11.82;1.70;;;7.30;87.70;;;;;;9178873;19;20570;-66
2022/12/07 13:24:48;;;;;;;8.88;1.40;;;7.30;87.70;;;;;;9177602;19;20028;-66
2022/12/07 13:27:59;;;;;;;13.18;1.77;;;7.30;87.70;;;;;;9169055;19;20014;-66
2022/12/07 13:31:28;;;;;;;7.43;1.42;;;7.30;87.70;;;;;;9174200;19;20039;-66
2022/12/07 13:34:36;;;;;;;5.15;1.23;;;7.30;87.70;;;;;;9174545;19;20353;-64
2022/12/07 13:37:40;;;;;;;9.93;1.48;;;7.30;87.70;;;;;;9180098;19;20022;-64
2022/12/07 13:40:44;;;;;;;7.75;2.50;;;7.30;87.60;;;;;;9175712;19;20034;-64
2022/12/07 13:43:51;;;;;;;21.25;3.03;;;7.30;87.60;;;;;;9167428;19;20022;-66
2022/12/07 13:47:05;;;;;;;7.05;1.48;;;7.30;87.60;;;;;;9163916;19;20025;-66
2022/12/07 13:50:27;;;;;;;12.55;2.15;;;7.30;87.50;;;;;;9165152;19;20015;-67
2022/12/07 13:53:32;;;;;;;6.22;1.48;;;7.30;87.50;;;;;;9164570;19;20075;-66
2022/12/07 13:56:39;;;;;;;6.65;1.25;;;7.20;87.40;;;;;;9163892;19;20109;-67
2022/12/07 13:59:44;;;;;;;8.98;2.08;;;7.30;87.40;;;;;;9166716;19;20014;-68
2022/12/07 14:02:59;;;;;;;11.60;1.83;;;7.20;87.30;;;;;;9160537;19;20519;-65
2022/12/07 14:06:16;;;;;;;6.38;1.15;;;7.20;87.20;;;;;;9167230;19;20025;-66
2022/12/07 14:09:22;;;;;;;6.22;1.50;;;7.20;87.20;;;;;;9166555;19;20487;-66
2022/12/07 14:12:27;;;;;;;5.57;1.33;;;7.20;87.20;;;;;;9167111;19;20026;-69
2022/12/07 14:15:33;;;;;;;7.65;1.88;;;7.10;87.10;;;;;;9167072;19;20022;-65
2022/12/07 14:18:40;;;;;;;7.93;0.90;;;7.10;87.10;;;;;;9160803;19;20038;-66
2022/12/07 14:21:46;;;;;;;7.65;2.00;;;7.10;87.00;;;;;;9164787;19;20029;-68
2022/12/07 14:24:50;;;;;;;10.02;1.98;;;7.00;87.00;;;;;;9164695;19;20055;-65
2022/12/07 14:27:58;;;;;;;12.45;2.15;;;7.00;87.00;;;;;;9161224;19;20052;-67
2022/12/07 14:31:03;;;;;;;5.85;1.52;;;7.00;87.00;;;;;;9156167;19;20019;-66
2022/12/07 14:34:07;;;;;;;8.70;2.05;;;7.00;87.00;;;;;;9168111;19;20742;-66
2022/12/07 14:37:13;;;;;;;7.13;1.38;;;6.90;86.90;;;;;;9169775;19;20360;-64
2022/12/07 14:40:19;;;;;;;5.70;1.42;;;6.90;86.90;;;;;;9174724;19;20018;-66
2022/12/07 14:43:23;;;;;;;9.20;1.83;;;6.90;86.90;;;;;;9168532;19;20360;-66
2022/12/07 14:46:29;;;;;;;6.18;1.50;;;6.90;86.90;;;;;;9168613;19;20523;-67
2022/12/07 14:49:33;;;;;;;6.88;1.70;;;6.90;86.90;;;;;;9172545;19;20010;-65
2022/12/07 14:52:41;;;;;;;6.03;1.52;;;6.80;86.90;;;;;;9171669;19;20026;-65
2022/12/07 14:56:06;;;;;;;4.53;1.63;;;6.80;86.80;;;;;;9173526;19;20048;-64
2022/12/07 14:59:09;;;;;;;13.02;1.98;;;6.80;86.80;;;;;;9167363;19;20010;-65
2022/12/07 15:02:15;;;;;;;8.48;1.75;;;6.80;86.80;;;;;;9172954;19;20019;-65
2022/12/07 15:05:19;;;;;;;6.25;1.52;;;6.80;86.90;;;;;;9173439;19;20018;-65
2022/12/07 15:08:25;;;;;;;10.88;2.10;;;6.80;86.80;;;;;;9177400;19;20020;-67
2022/12/07 15:11:30;;;;;;;6.80;1.33;;;6.70;86.70;;;;;;9180559;19;20019;-65
2022/12/07 15:14:34;;;;;;;5.47;1.25;;;6.70;86.70;;;;;;9179865;19;20042;-64
2022/12/07 15:17:37;;;;;;;7.40;1.13;;;6.70;86.70;;;;;;9175451;19;20047;-64
2022/12/07 15:20:41;;;;;;;2.97;0.95;;;6.70;86.70;;;;;;9175516;19;20507;-65
2022/12/07 15:23:47;;;;;;;;;;;6.60;86.60;;;;;;9178779;19;20460;-64
2022/12/07 15:26:52;;;;;;;6.65;1.90;;;6.60;86.60;;;;;;9173022;19;19937;-64
2022/12/07 15:29:55;;;;;;;12.02;3.97;;;6.60;86.70;;;;;;9178559;19;20010;-66
2022/12/07 15:32:59;;;;;;;5.45;1.63;;;6.60;86.60;;;;;;9170472;19;20475;-65
2022/12/07 15:36:03;;;;;;;;;;;6.60;86.60;;;;;;9173067;19;20042;-66
2022/12/07 15:39:10;;;;;;;10.18;1.92;;;6.50;86.60;;;;;;9168747;19;19927;-67
2022/12/07 15:42:18;;;;;;;7.47;1.10;;;6.50;86.60;;;;;;9172912;19;20022;-66
2022/12/07 15:45:22;;;;;;;;;;;6.50;86.60;;;;;;9167509;19;20019;-66
2022/12/07 15:48:25;;;;;;;5.63;1.38;;;6.50;86.60;;;;;;9173760;19;20325;-65
2022/12/07 15:51:32;;;;;;;5.85;1.50;;;6.50;86.70;;;;;;9176182;19;20105;-65
2022/12/07 15:54:37;;;;;;;8.50;1.40;;;6.50;86.60;;;;;;9172987;19;20035;-66
2022/12/07 15:57:41;;;;;;;12.15;1.83;;;6.40;86.60;;;;;;9170106;19;20046;-65
2022/12/07 16:00:45;;;;;;;;;;;6.40;86.60;;;;;;9175654;19;20015;-64
2022/12/07 16:03:49;;;;;;;9.57;1.95;;;6.40;86.60;;;;;;9165292;19;19953;-66
2022/12/07 16:06:53;;;;;;;4.88;1.48;;;6.40;86.60;;;;;;9163547;19;20007;-67
2022/12/07 16:09:59;;;;;;;9.80;2.50;;;6.40;86.60;;;;;;9161551;19;20416;-67
2022/12/07 16:13:03;;;;;;;11.02;2.28;;;6.30;86.50;;;;;;9164224;19;20023;-64
2022/12/07 16:16:08;;;;;;;16.10;4.60;;;6.30;86.50;;;;;;9171749;19;20499;-66
2022/12/07 16:19:12;;;;;;;12.30;3.95;;;6.30;86.60;;;;;;9172965;19;20025;-63
2022/12/07 16:22:16;;;;;;;9.65;2.30;;;6.30;86.50;;;;;;9174111;19;20055;-65
2022/12/07 16:25:22;;;;;;;7.43;2.40;;;6.20;86.50;;;;;;9167253;19;21085;-64
2022/12/07 16:28:26;;;;;;;9.85;2.15;;;6.20;86.60;;;;;;9169157;19;20022;-67
2022/12/07 16:31:30;;;;;;;14.93;3.53;;;6.20;86.50;;;;;;9169564;19;20018;-68
2022/12/07 16:34:34;;;;;;;8.57;2.00;;;6.20;86.50;;;;;;9162987;19;20023;-67
2022/12/07 16:37:37;;;;;;;;;;;6.20;86.50;;;;;;9168198;19;20467;-66
2022/12/07 16:40:43;;;;;;;8.02;2.05;;;6.20;86.50;;;;;;9169382;19;20355;-65
2022/12/07 16:43:48;;;;;;;8.98;2.47;;;6.20;86.60;;;;;;9163974;19;20483;-66
2022/12/07 16:46:52;;;;;;;10.32;2.88;;;6.20;86.60;;;;;;9175544;19;20093;-65